createdAt,value
2023-03-31T00:00:14.266Z,99336.81
2023-03-31T00:03:01.843Z,99350.94
2023-03-31T00:05:29.623Z,99346.22
2023-03-31T00:07:58.280Z,99337.81
2023-03-31T00:10:26.194Z,99332.66
2023-03-31T00:12:55.071Z,99325.56
2023-03-31T00:15:23.056Z,99329.78
2023-03-31T00:17:50.388Z,99327.34
2023-03-31T00:20:18.279Z,99320.69
2023-03-31T00:22:46.057Z,99331.16
2023-03-31T00:25:14.505Z,99323.75
2023-03-31T00:27:42.984Z,99326.72
2023-03-31T00:30:14.047Z,99324.50
2023-03-31T00:32:41.940Z,99318.75
2023-03-31T00:35:09.986Z,99321.22
2023-03-31T00:37:37.426Z,99320.72
2023-03-31T00:40:06.182Z,99322.47
2023-03-31T00:42:33.606Z,99306.78
2023-03-31T00:45:25.438Z,99302.25
2023-03-31T00:47:56.287Z,99299.34
2023-03-31T00:50:27.292Z,99294.16
2023-03-31T00:52:57.701Z,99286.66
2023-03-31T00:55:30.672Z,99289.97
2023-03-31T00:57:58.833Z,99280.16
2023-03-31T01:00:28.555Z,99279.88
2023-03-31T01:03:09.356Z,99278.41
2023-03-31T01:05:43.185Z,99277.13
2023-03-31T01:08:11.698Z,99283.34
2023-03-31T01:10:45.167Z,99283.63
2023-03-31T01:13:14.886Z,99280.47
2023-03-31T01:15:44.692Z,99288.34
2023-03-31T01:18:14.106Z,99286.31
2023-03-31T01:21:04.420Z,99280.31
2023-03-31T01:24:08.960Z,99271.44
2023-03-31T01:26:56.433Z,99272.91
2023-03-31T01:29:56.348Z,99267.25
2023-03-31T01:32:51.334Z,99269.66
2023-03-31T01:35:48.236Z,99268.84
2023-03-31T01:38:48.162Z,99261.69
2023-03-31T01:41:29.516Z,99262.00
2023-03-31T01:44:05.446Z,99259.31
2023-03-31T01:46:37.076Z,99258.28
2023-03-31T01:49:12.047Z,99262.72
2023-03-31T01:51:47.339Z,99263.16
2023-03-31T01:54:21.290Z,99255.03
2023-03-31T01:56:54.396Z,99258.09
2023-03-31T01:59:27.820Z,99262.06
2023-03-31T02:01:59.165Z,99257.38
2023-03-31T02:04:31.662Z,99247.94
2023-03-31T02:07:03.775Z,99256.94
2023-03-31T02:12:08.653Z,99241.94
2023-03-31T02:14:39.713Z,99246.41
2023-03-31T02:17:10.394Z,99239.09
2023-03-31T02:19:44.077Z,99237.63
2023-03-31T02:22:13.512Z,99235.84
2023-03-31T02:24:42.607Z,99233.72
2023-03-31T02:27:15.942Z,99227.84
2023-03-31T02:29:43.812Z,99238.38
2023-03-31T02:32:16.178Z,99226.66
2023-03-31T02:34:43.947Z,99228.69
2023-03-31T02:37:12.280Z,99225.63
2023-03-31T02:39:41.833Z,99220.84
2023-03-31T02:42:11.602Z,99219.16
2023-03-31T02:44:40.135Z,99220.50
2023-03-31T02:47:09.448Z,99219.50
2023-03-31T02:49:40.312Z,99220.97
2023-03-31T02:52:42.657Z,99219.53
2023-03-31T02:55:44.986Z,99214.16
2023-03-31T02:58:54.624Z,99206.75
2023-03-31T03:01:31.539Z,99213.06
2023-03-31T03:04:10.994Z,99201.13
2023-03-31T03:06:45.030Z,99194.75
2023-03-31T03:09:26.608Z,99194.75
2023-03-31T03:12:05.739Z,99193.97
2023-03-31T03:14:40.825Z,99193.09
2023-03-31T03:17:15.294Z,99181.75
2023-03-31T03:19:43.067Z,99181.66
2023-03-31T03:22:10.796Z,99195.00
2023-03-31T03:24:38.323Z,99182.94
2023-03-31T03:27:06.163Z,99182.75
2023-03-31T03:29:33.650Z,99182.03
2023-03-31T03:32:01.419Z,99187.59
2023-03-31T03:34:30.216Z,99189.44
2023-03-31T03:36:57.955Z,99187.38
2023-03-31T03:39:25.393Z,99185.66
2023-03-31T03:41:54.110Z,99188.53
2023-03-31T03:44:21.498Z,99186.38
2023-03-31T03:46:49.928Z,99186.47
2023-03-31T03:49:17.570Z,99189.81
2023-03-31T03:51:47.002Z,99187.31
2023-03-31T03:54:14.444Z,99181.34
2023-03-31T03:56:42.247Z,99175.50
2023-03-31T03:59:11.238Z,99175.06
2023-03-31T04:01:39.223Z,99177.41
2023-03-31T04:04:06.963Z,99166.78
2023-03-31T04:06:35.299Z,99170.88
2023-03-31T04:09:04.266Z,99175.19
2023-03-31T04:11:32.112Z,99167.75
2023-03-31T04:13:59.509Z,99171.13
2023-03-31T04:16:27.643Z,99166.06
2023-03-31T04:18:55.336Z,99157.00
2023-03-31T04:21:23.806Z,99162.75
2023-03-31T04:23:54.078Z,99146.88
2023-03-31T04:26:23.332Z,99148.88
2023-03-31T04:28:50.870Z,99142.00
2023-03-31T04:31:18.705Z,99140.69
2023-03-31T04:33:46.309Z,99135.06
2023-03-31T04:36:14.158Z,99139.91
2023-03-31T04:38:41.542Z,99139.22
2023-03-31T04:41:09.524Z,99140.91
2023-03-31T04:43:38.438Z,99129.91
2023-03-31T04:46:07.141Z,99129.00
2023-03-31T04:48:35.033Z,99126.78
2023-03-31T04:51:03.599Z,99126.34
2023-03-31T04:53:31.428Z,99126.13
2023-03-31T04:55:59.155Z,99134.69
2023-03-31T04:58:26.662Z,99142.38
2023-03-31T05:00:55.933Z,99131.41
2023-03-31T05:03:23.474Z,99130.19
2023-03-31T05:05:51.305Z,99127.41
2023-03-31T05:08:18.770Z,99123.44
2023-03-31T05:10:46.520Z,99122.22
2023-03-31T05:13:13.963Z,99133.53
2023-03-31T05:15:41.888Z,99126.44
2023-03-31T05:18:11.172Z,99121.66
2023-03-31T05:20:38.982Z,99115.22
2023-03-31T05:23:06.524Z,99114.84
2023-03-31T05:25:34.478Z,99114.47
2023-03-31T05:28:02.411Z,99113.09
2023-03-31T05:30:30.229Z,99114.19
2023-03-31T05:32:57.904Z,99119.34
2023-03-31T05:35:27.901Z,99115.69
2023-03-31T05:37:55.413Z,99113.66
2023-03-31T05:40:23.220Z,99116.88
2023-03-31T05:42:51.043Z,99108.59
2023-03-31T05:45:18.989Z,99112.88
2023-03-31T05:47:46.480Z,99100.22
2023-03-31T05:50:14.995Z,99105.19
2023-03-31T05:52:44.132Z,99098.16
2023-03-31T05:55:11.914Z,99095.03
2023-03-31T05:57:39.365Z,99086.31
2023-03-31T06:00:08.750Z,99090.81
2023-03-31T06:02:36.271Z,99088.50
2023-03-31T06:05:04.564Z,99085.94
2023-03-31T06:07:32.117Z,99088.41
2023-03-31T06:10:01.561Z,99080.84
2023-03-31T06:12:29.150Z,99086.94
2023-03-31T06:14:56.886Z,99084.41
2023-03-31T06:17:24.255Z,99087.03
2023-03-31T06:19:52.642Z,99086.19
2023-03-31T06:22:20.278Z,99087.25
2023-03-31T06:24:48.055Z,99086.44
2023-03-31T06:27:17.095Z,99081.84
2023-03-31T06:29:44.790Z,99072.53
2023-03-31T06:32:12.228Z,99077.91
2023-03-31T06:34:40.107Z,99069.41
2023-03-31T06:37:07.495Z,99072.75
2023-03-31T06:39:35.334Z,99077.09
2023-03-31T06:42:02.855Z,99062.31
2023-03-31T06:44:32.471Z,99071.28
2023-03-31T06:46:59.853Z,99063.41
2023-03-31T06:49:27.622Z,99061.94
2023-03-31T06:51:54.998Z,99057.94
2023-03-31T06:54:22.880Z,99052.38
2023-03-31T06:56:50.355Z,99052.41
2023-03-31T06:59:18.172Z,99038.50
2023-03-31T07:01:47.101Z,99047.00
2023-03-31T07:04:15.013Z,99045.75
2023-03-31T07:06:42.491Z,99037.09
2023-03-31T07:09:10.207Z,99032.34
2023-03-31T07:11:37.575Z,99035.63
2023-03-31T07:14:05.333Z,99034.16
2023-03-31T07:16:32.877Z,99026.88
2023-03-31T07:19:02.140Z,99020.53
2023-03-31T07:21:29.584Z,99020.75
2023-03-31T07:23:58.282Z,99018.25
2023-03-31T07:26:26.151Z,99011.81
2023-03-31T07:28:54.025Z,99011.22
2023-03-31T07:31:21.447Z,99014.09
2023-03-31T07:33:49.634Z,99025.22
2023-03-31T07:36:18.903Z,99028.94
2023-03-31T07:38:47.944Z,99029.75
2023-03-31T07:41:18.869Z,99020.50
2023-03-31T07:43:47.555Z,99009.31
2023-03-31T07:46:16.802Z,99003.31
2023-03-31T07:48:45.746Z,99005.97
2023-03-31T07:51:13.533Z,98998.63
2023-03-31T07:53:42.931Z,99001.59
2023-03-31T07:56:10.543Z,99000.88
2023-03-31T07:58:38.537Z,98991.53
2023-03-31T08:01:06.208Z,98994.22
2023-03-31T08:03:34.490Z,98986.34
2023-03-31T08:06:02.026Z,98994.50
2023-03-31T08:08:29.742Z,98993.00
2023-03-31T08:10:58.711Z,98994.38
2023-03-31T08:13:26.537Z,98994.31
2023-03-31T08:15:53.985Z,98981.97
2023-03-31T08:18:21.916Z,98970.44
2023-03-31T08:20:49.590Z,98974.63
2023-03-31T08:23:17.449Z,98961.16
2023-03-31T08:25:44.825Z,98958.38
2023-03-31T08:28:14.093Z,98959.53
2023-03-31T08:30:41.800Z,98965.25
2023-03-31T08:33:09.765Z,98961.06
2023-03-31T08:35:37.289Z,98957.78
2023-03-31T08:38:05.159Z,98957.63
2023-03-31T08:40:33.692Z,98961.19
2023-03-31T08:43:06.346Z,98949.63
2023-03-31T08:45:39.830Z,98956.34
2023-03-31T08:48:15.182Z,98953.63
2023-03-31T08:50:47.633Z,98942.00
2023-03-31T08:53:23.424Z,98932.63
2023-03-31T08:55:53.530Z,98926.19
2023-03-31T08:58:33.534Z,98933.28
2023-03-31T09:01:08.216Z,98936.13
2023-03-31T09:03:45.610Z,98931.81
2023-03-31T09:06:16.782Z,98926.47
2023-03-31T09:08:44.728Z,98926.47
2023-03-31T09:11:29.428Z,98927.72
2023-03-31T09:14:25.235Z,98920.47
2023-03-31T09:17:05.845Z,98923.91
2023-03-31T09:19:38.633Z,98922.97
2023-03-31T09:22:14.350Z,98916.47
2023-03-31T09:24:49.384Z,98907.00
2023-03-31T09:27:18.231Z,98906.59
2023-03-31T09:29:52.140Z,98898.22
2023-03-31T09:32:25.206Z,98892.59
2023-03-31T09:34:56.879Z,98896.19
2023-03-31T09:37:28.003Z,98885.91
2023-03-31T09:39:56.491Z,98887.66
2023-03-31T09:42:23.974Z,98873.81
2023-03-31T09:44:51.793Z,98875.88
2023-03-31T09:47:29.133Z,98872.53
2023-03-31T09:49:56.955Z,98871.53
2023-03-31T09:52:29.805Z,98866.69
2023-03-31T09:55:00.467Z,98865.38
2023-03-31T09:57:33.808Z,98860.28
2023-03-31T10:00:05.072Z,98856.00
2023-03-31T10:02:38.440Z,98853.28
2023-03-31T10:05:17.919Z,98848.47
2023-03-31T10:07:45.675Z,98843.31
2023-03-31T10:10:29.097Z,98830.94
2023-03-31T10:12:56.792Z,98834.31
2023-03-31T10:15:27.673Z,98836.97
2023-03-31T10:17:58.877Z,98833.44
2023-03-31T10:20:37.072Z,98839.53
2023-03-31T10:23:15.045Z,98830.69
2023-03-31T10:25:43.131Z,98830.19
2023-03-31T10:28:12.709Z,98828.59
2023-03-31T10:30:40.426Z,98818.81
2023-03-31T10:33:22.742Z,98801.00
2023-03-31T10:35:56.474Z,98807.88
2023-03-31T10:38:27.558Z,98799.78
2023-03-31T10:40:57.062Z,98801.25
2023-03-31T10:43:27.631Z,98801.41
2023-03-31T10:45:57.518Z,98793.94
2023-03-31T10:48:28.527Z,98781.72
2023-03-31T10:51:00.725Z,98777.03
2023-03-31T10:53:28.268Z,98772.31
2023-03-31T10:56:28.477Z,98761.50
2023-03-31T10:59:35.391Z,98760.63
2023-03-31T11:02:34.307Z,98755.59
2023-03-31T11:05:12.121Z,98750.81
2023-03-31T11:07:53.690Z,98747.91
2023-03-31T11:10:41.341Z,98750.78
2023-03-31T11:13:17.404Z,98744.53
2023-03-31T11:15:54.654Z,98744.03
2023-03-31T11:18:45.664Z,98731.81
2023-03-31T11:21:23.946Z,98718.38
2023-03-31T11:24:01.997Z,98717.16
2023-03-31T11:26:38.771Z,98706.47
2023-03-31T11:29:19.802Z,98714.53
2023-03-31T11:31:52.444Z,98712.97
2023-03-31T11:34:57.064Z,98701.03
2023-03-31T11:37:42.778Z,98707.56
2023-03-31T11:40:33.316Z,98697.34
2023-03-31T11:43:06.666Z,98701.25
2023-03-31T11:45:38.893Z,98687.94
2023-03-31T11:48:15.945Z,98683.13
2023-03-31T11:50:47.091Z,98685.31
2023-03-31T11:53:18.958Z,98681.91
2023-03-31T11:55:50.508Z,98681.06
2023-03-31T11:58:23.320Z,98682.13
2023-03-31T12:00:56.429Z,98686.06
2023-03-31T12:03:30.160Z,98678.41
2023-03-31T12:06:02.962Z,98675.94
2023-03-31T12:08:38.958Z,98687.00
2023-03-31T12:11:12.780Z,98681.22
2023-03-31T12:13:48.317Z,98663.59
2023-03-31T12:16:20.337Z,98670.91
2023-03-31T12:18:59.918Z,98659.13
2023-03-31T12:21:30.049Z,98663.78
2023-03-31T12:23:58.910Z,98652.44
2023-03-31T12:26:40.203Z,98657.00
2023-03-31T12:29:17.652Z,98647.81
2023-03-31T12:31:47.071Z,98641.25
2023-03-31T12:34:18.460Z,98636.00
2023-03-31T12:37:04.767Z,98631.78
2023-03-31T12:39:44.456Z,98626.13
2023-03-31T12:42:38.707Z,98625.72
2023-03-31T12:45:16.846Z,98622.56
2023-03-31T12:48:00.011Z,98616.38
2023-03-31T12:50:43.927Z,98604.16
2023-03-31T12:53:18.868Z,98602.88
2023-03-31T12:55:48.941Z,98596.59
2023-03-31T12:58:42.681Z,98588.41
2023-03-31T13:01:13.396Z,98587.59
2023-03-31T13:03:44.912Z,98593.06
2023-03-31T13:06:59.265Z,98587.69
2023-03-31T13:09:44.513Z,98583.94
2023-03-31T13:12:17.899Z,98577.25
2023-03-31T13:14:47.632Z,98582.31
2023-03-31T13:17:31.776Z,98571.03
2023-03-31T13:20:25.732Z,98563.19
2023-03-31T13:23:00.717Z,98555.53
2023-03-31T13:25:45.381Z,98549.56
2023-03-31T13:28:31.721Z,98538.13
2023-03-31T13:31:01.490Z,98542.28
2023-03-31T13:33:35.219Z,98533.28
2023-03-31T13:36:44.596Z,98529.53
2023-03-31T13:39:40.752Z,98520.25
2023-03-31T13:42:33.257Z,98523.63
2023-03-31T13:45:31.241Z,98507.78
2023-03-31T13:48:20.716Z,98512.25
2023-03-31T13:51:02.225Z,98501.63
2023-03-31T13:53:45.802Z,98497.09
2023-03-31T13:56:33.562Z,98497.09
2023-03-31T13:59:29.422Z,98493.69
2023-03-31T14:02:36.813Z,98491.13
2023-03-31T14:05:22.836Z,98484.75
2023-03-31T14:07:55.723Z,98476.78
2023-03-31T14:10:30.386Z,98470.56
2023-03-31T14:13:10.043Z,98469.28
2023-03-31T14:15:40.677Z,98467.28
2023-03-31T14:18:13.844Z,98453.41
2023-03-31T14:20:50.430Z,98443.41
2023-03-31T14:23:31.014Z,98437.19
2023-03-31T14:26:05.216Z,98444.59
2023-03-31T14:28:50.444Z,98436.59
2023-03-31T14:31:24.620Z,98432.47
2023-03-31T14:34:20.805Z,98426.75
2023-03-31T14:36:57.087Z,98421.19
2023-03-31T14:39:28.187Z,98414.63
2023-03-31T14:41:59.556Z,98412.50
2023-03-31T14:44:26.926Z,98408.22
2023-03-31T14:46:57.221Z,98403.81
2023-03-31T14:49:29.176Z,98397.13
2023-03-31T14:52:01.411Z,98399.44
2023-03-31T14:54:34.240Z,98398.88
2023-03-31T14:57:02.134Z,98409.56
2023-03-31T14:59:32.706Z,98398.75
2023-03-31T15:02:02.426Z,98404.16
2023-03-31T15:04:42.625Z,98403.47
2023-03-31T15:07:11.665Z,98405.56
2023-03-31T15:09:40.150Z,98401.50
2023-03-31T15:12:12.049Z,98396.56
2023-03-31T15:14:44.940Z,98390.88
2023-03-31T15:17:18.571Z,98391.03
2023-03-31T15:19:52.349Z,98397.47
2023-03-31T15:22:22.883Z,98393.38
2023-03-31T15:24:50.478Z,98395.81
2023-03-31T15:27:37.068Z,98390.78
2023-03-31T15:30:09.380Z,98398.44
2023-03-31T15:32:38.040Z,98395.25
2023-03-31T15:35:22.085Z,98390.09
2023-03-31T15:37:50.767Z,98393.03
2023-03-31T15:40:22.026Z,98392.03
2023-03-31T15:43:02.072Z,98391.13
2023-03-31T15:45:45.728Z,98400.22
2023-03-31T15:48:22.439Z,98397.00
2023-03-31T15:50:51.776Z,98392.78
2023-03-31T15:53:37.099Z,98390.38
2023-03-31T15:56:05.488Z,98383.00
2023-03-31T15:58:54.819Z,98388.66
2023-03-31T16:01:23.535Z,98399.41
2023-03-31T16:03:54.152Z,98393.84
2023-03-31T16:06:35.028Z,98381.03
2023-03-31T16:09:06.284Z,98375.75
2023-03-31T16:11:38.673Z,98379.28
2023-03-31T16:14:11.932Z,98376.13
2023-03-31T16:16:40.389Z,98366.06
2023-03-31T16:19:10.358Z,98369.31
2023-03-31T16:21:41.760Z,98367.41
2023-03-31T16:24:10.275Z,98358.63
2023-03-31T16:26:38.450Z,98349.09
2023-03-31T16:29:06.382Z,98350.06
2023-03-31T16:31:36.018Z,98350.41
2023-03-31T16:34:05.393Z,98352.41
2023-03-31T16:36:33.011Z,98340.09
2023-03-31T16:39:03.379Z,98338.22
2023-03-31T16:41:32.529Z,98329.41
2023-03-31T16:44:00.948Z,98329.97
2023-03-31T16:46:28.824Z,98322.28
2023-03-31T16:48:56.799Z,98308.31
2023-03-31T16:51:24.338Z,98305.56
2023-03-31T16:53:52.123Z,98296.72
2023-03-31T16:56:21.143Z,98305.56
2023-03-31T16:58:48.844Z,98309.91
2023-03-31T17:01:16.532Z,98304.41
2023-03-31T17:03:44.764Z,98301.75
2023-03-31T17:06:13.328Z,98311.22
2023-03-31T17:08:41.415Z,98310.41
2023-03-31T17:11:10.851Z,98301.97
2023-03-31T17:13:41.278Z,98305.69
2023-03-31T17:16:20.368Z,98309.25
2023-03-31T17:18:52.336Z,98309.50
2023-03-31T17:21:20.152Z,98301.97
2023-03-31T17:23:48.425Z,98301.34
2023-03-31T17:26:16.639Z,98299.34
2023-03-31T17:28:45.997Z,98298.38
2023-03-31T17:31:14.069Z,98304.13
2023-03-31T17:33:43.764Z,98297.50
2023-03-31T17:36:12.244Z,98288.41
2023-03-31T17:38:40.708Z,98287.00
2023-03-31T17:41:10.392Z,98291.63
2023-03-31T17:43:38.387Z,98289.19
2023-03-31T17:46:10.867Z,98295.94
2023-03-31T17:48:40.640Z,98302.31
2023-03-31T17:51:10.032Z,98306.50
2023-03-31T17:53:39.271Z,98310.13
2023-03-31T17:56:07.222Z,98317.19
2023-03-31T17:58:35.254Z,98327.56
2023-03-31T18:01:04.484Z,98329.78
2023-03-31T18:03:34.535Z,98339.47
2023-03-31T18:06:06.890Z,98339.22
2023-03-31T18:08:35.308Z,98335.06
2023-03-31T18:11:02.997Z,98340.50
2023-03-31T18:13:31.403Z,98344.84
2023-03-31T18:15:59.022Z,98353.81
2023-03-31T18:18:27.106Z,98343.13
2023-03-31T18:20:56.971Z,98344.44
2023-03-31T18:23:24.933Z,98343.78
2023-03-31T18:25:52.529Z,98338.41
2023-03-31T18:28:20.471Z,98332.94
2023-03-31T18:30:48.130Z,98337.91
2023-03-31T18:33:16.175Z,98342.47
2023-03-31T18:35:44.388Z,98337.16
2023-03-31T18:38:13.859Z,98328.31
2023-03-31T18:40:48.250Z,98331.09
2023-03-31T18:43:16.137Z,98334.47
2023-03-31T18:45:43.773Z,98347.53
2023-03-31T18:48:11.555Z,98339.63
2023-03-31T18:50:39.050Z,98341.44
2023-03-31T18:53:06.854Z,98342.00
2023-03-31T18:55:35.946Z,98335.91
2023-03-31T18:58:03.929Z,98337.84
2023-03-31T19:00:31.318Z,98341.41
2023-03-31T19:02:59.541Z,98340.97
2023-03-31T19:05:27.666Z,98338.72
2023-03-31T19:07:55.772Z,98339.78
2023-03-31T19:10:23.531Z,98335.28
2023-03-31T19:12:53.130Z,98336.59
2023-03-31T19:15:21.579Z,98332.41
2023-03-31T19:17:49.609Z,98344.47
2023-03-31T19:20:17.582Z,98344.06
2023-03-31T19:22:46.824Z,98338.72
2023-03-31T19:25:14.952Z,98341.41
2023-03-31T19:27:43.481Z,98336.84
2023-03-31T19:30:16.480Z,98344.09
2023-03-31T19:32:45.020Z,98344.78
2023-03-31T19:35:12.666Z,98337.19
2023-03-31T19:37:40.449Z,98345.47
2023-03-31T19:40:09.459Z,98341.88
2023-03-31T19:42:37.680Z,98340.97
2023-03-31T19:45:05.969Z,98347.50
2023-03-31T19:47:35.381Z,98349.31
2023-03-31T19:50:03.014Z,98345.63
2023-03-31T19:52:30.872Z,98349.88
2023-03-31T19:54:58.401Z,98356.16
2023-03-31T19:57:26.508Z,98355.94
2023-03-31T19:59:53.939Z,98355.72
2023-03-31T20:02:22.005Z,98352.50
2023-03-31T20:04:51.186Z,98356.97
2023-03-31T20:07:19.606Z,98370.50
2023-03-31T20:09:47.143Z,98396.25
2023-03-31T20:12:15.065Z,98396.91
2023-03-31T20:14:42.727Z,98387.28
2023-03-31T20:17:10.742Z,98387.94
2023-03-31T20:19:38.449Z,98394.75
2023-03-31T20:22:07.807Z,98389.59
2023-03-31T20:24:35.195Z,98382.75
2023-03-31T20:27:03.038Z,98393.91
2023-03-31T20:29:30.598Z,98391.47
2023-03-31T20:31:58.615Z,98404.06
2023-03-31T20:34:26.508Z,98410.69
2023-03-31T20:36:54.340Z,98401.19
2023-03-31T20:39:23.278Z,98408.41
2023-03-31T20:41:51.292Z,98410.31
2023-03-31T20:44:18.773Z,98411.53
2023-03-31T20:46:46.629Z,98421.47
2023-03-31T20:49:14.211Z,98422.50
2023-03-31T20:51:43.117Z,98421.88
2023-03-31T20:54:10.598Z,98421.25
2023-03-31T20:56:41.037Z,98421.25
2023-03-31T20:59:11.310Z,98416.72
2023-03-31T21:01:39.295Z,98412.38
2023-03-31T21:04:08.177Z,98412.38
2023-03-31T21:06:41.295Z,98407.63
2023-03-31T21:09:09.081Z,98410.06
2023-03-31T21:11:36.831Z,98405.13
2023-03-31T21:14:05.832Z,98398.09
2023-03-31T21:16:34.133Z,98396.81
2023-03-31T21:19:01.738Z,98389.41
2023-03-31T21:21:29.951Z,98384.00
2023-03-31T21:23:57.372Z,98382.34
2023-03-31T21:26:25.269Z,98377.19
2023-03-31T21:28:53.202Z,98380.69
2023-03-31T21:31:24.455Z,98376.22
2023-03-31T21:33:53.445Z,98379.09
2023-03-31T21:36:22.549Z,98379.94
2023-03-31T21:38:52.631Z,98389.25
2023-03-31T21:41:22.074Z,98387.41
2023-03-31T21:43:49.750Z,98389.88
2023-03-31T21:46:18.875Z,98393.19
2023-03-31T21:48:48.743Z,98395.69
2023-03-31T21:51:17.475Z,98396.50
2023-03-31T21:53:45.001Z,98393.00
2023-03-31T21:56:12.705Z,98398.16
2023-03-31T21:58:40.315Z,98398.59
2023-03-31T22:01:08.933Z,98396.50
2023-03-31T22:03:36.573Z,98401.66
2023-03-31T22:06:07.098Z,98396.09
2023-03-31T22:08:35.196Z,98403.94
2023-03-31T22:11:04.070Z,98399.38
2023-03-31T22:13:31.762Z,98400.59
2023-03-31T22:15:59.709Z,98400.00
2023-03-31T22:18:27.621Z,98403.50
2023-03-31T22:20:55.663Z,98405.75
2023-03-31T22:23:24.935Z,98408.84
2023-03-31T22:25:52.818Z,98408.66
2023-03-31T22:28:20.294Z,98411.16
2023-03-31T22:30:48.587Z,98418.59
2023-03-31T22:33:16.116Z,98416.09
2023-03-31T22:35:44.039Z,98415.25
2023-03-31T22:38:12.740Z,98421.25
2023-03-31T22:40:42.045Z,98411.56
2023-03-31T22:43:09.455Z,98416.72
2023-03-31T22:45:37.624Z,98410.50
2023-03-31T22:48:06.229Z,98411.13
2023-03-31T22:50:34.539Z,98403.09
2023-03-31T22:53:01.917Z,98405.19
2023-03-31T22:55:29.910Z,98412.59
2023-03-31T22:57:58.949Z,98410.13
2023-03-31T23:00:26.703Z,98404.97
2023-03-31T23:02:54.124Z,98397.34
2023-03-31T23:05:21.944Z,98400.44
2023-03-31T23:07:49.452Z,98401.03
2023-03-31T23:10:17.433Z,98398.38
2023-03-31T23:12:44.758Z,98393.81
2023-03-31T23:15:13.968Z,98395.44
2023-03-31T23:17:41.466Z,98398.91
2023-03-31T23:20:10.243Z,98389.59
2023-03-31T23:22:37.653Z,98384.41
2023-03-31T23:25:06.247Z,98385.13
2023-03-31T23:27:33.863Z,98384.63
2023-03-31T23:30:01.643Z,98372.41
2023-03-31T23:32:30.711Z,98371.16
2023-03-31T23:34:58.426Z,98375.88
2023-03-31T23:37:25.856Z,98361.53
2023-03-31T23:39:53.841Z,98369.06
2023-03-31T23:42:21.190Z,98364.34
2023-03-31T23:44:49.005Z,98365.63
2023-03-31T23:47:16.404Z,98369.16
2023-03-31T23:49:45.558Z,98365.44
2023-03-31T23:52:12.868Z,98370.31
2023-03-31T23:54:40.725Z,98358.63
2023-03-31T23:57:08.158Z,98361.72
2023-03-31T23:59:36.130Z,98360.50
